Time;durP1;ratioP1;P1;durP2;ratioP2;P2;SDS_P1;SDS_P2;PMS_P1;PMS_P2;Temp;Humidity;BMP_temperature;BMP_pressure;BME280_temperature;BME280_humidity;BME280_pressure;Samples;Min_cycle;Max_cycle;Signal;HPM_P1;HPM_P2
2021/08/21 00:00:35;;;;;;;25.10;22.60;;;;;;;16.98;100.00;99241.81;2081122;28;20583;-74
2021/08/21 00:01:35;;;;;;;24.50;22.30;;;;;;;16.96;100.00;99230.56;2081126;28;20489;-74
2021/08/21 00:02:37;;;;;;;24.30;22.10;;;;;;;16.95;100.00;99227.09;2080433;28;20461;-74
2021/08/21 00:03:38;;;;;;;24.43;22.23;;;;;;;16.93;100.00;99232.00;2071861;28;20223;-74
2021/08/21 00:04:40;;;;;;;24.50;22.07;;;;;;;16.96;100.00;99233.28;2080511;28;20453;-74
2021/08/21 00:05:41;;;;;;;25.60;23.00;;;;;;;16.97;100.00;99229.44;2080241;28;20251;-74
2021/08/21 00:06:42;;;;;;;25.93;23.33;;;;;;;16.97;100.00;99232.16;2080400;28;20520;-74
2021/08/21 00:07:45;;;;;;;25.70;23.17;;;;;;;16.95;100.00;99229.00;2081001;28;20450;-74
2021/08/21 00:08:46;;;;;;;24.90;22.20;;;;;;;16.96;100.00;99233.28;2081135;28;20216;-74
2021/08/21 00:09:47;;;;;;;25.67;22.97;;;;;;;16.92;100.00;99241.22;2080184;28;20450;-74
2021/08/21 00:10:49;;;;;;;26.07;23.33;;;;;;;16.87;100.00;99230.66;2080642;28;20573;-74
2021/08/21 00:11:50;;;;;;;25.47;22.97;;;;;;;16.84;100.00;99227.84;2081190;28;20434;-74
2021/08/21 00:12:52;;;;;;;25.10;22.70;;;;;;;16.85;100.00;99226.72;2081105;28;20495;-74
2021/08/21 00:13:52;;;;;;;25.77;23.30;;;;;;;16.84;100.00;99234.00;2080713;28;20481;-74
2021/08/21 00:14:54;;;;;;;31.73;23.03;;;;;;;16.84;100.00;99228.63;2080188;28;20454;-74
2021/08/21 00:15:55;;;;;;;25.20;22.90;;;;;;;16.83;100.00;99231.66;2080422;28;20223;-74
2021/08/21 00:16:56;;;;;;;25.57;22.97;;;;;;;16.81;100.00;99229.28;2080245;28;20549;-74
2021/08/21 00:17:58;;;;;;;25.63;23.13;;;;;;;16.80;100.00;99233.13;2080441;28;20357;-74
2021/08/21 00:18:59;;;;;;;25.43;22.80;;;;;;;16.80;100.00;99227.72;2079783;28;20450;-74
2021/08/21 00:20:01;;;;;;;26.13;23.23;;;;;;;16.81;100.00;99233.91;2080431;28;20454;-74
2021/08/21 00:21:02;;;;;;;25.27;22.90;;;;;;;16.80;100.00;99232.31;2081001;28;20537;-74
2021/08/21 00:22:03;;;;;;;26.67;24.00;;;;;;;16.78;100.00;99245.34;2081042;28;20465;-74
2021/08/21 00:23:05;;;;;;;26.37;23.73;;;;;;;16.76;100.00;99240.28;2081074;28;20239;-74
2021/08/21 00:24:07;;;;;;;26.13;23.43;;;;;;;16.75;100.00;99230.63;2080817;28;20434;-74
2021/08/21 00:25:10;;;;;;;26.10;23.50;;;;;;;16.77;100.00;99241.09;2079766;28;20481;-74
2021/08/21 00:26:10;;;;;;;26.13;23.73;;;;;;;16.77;100.00;99241.09;2080343;28;20446;-74
2021/08/21 00:27:12;;;;;;;26.40;23.57;;;;;;;16.76;100.00;99247.56;2079658;28;20455;-74
2021/08/21 00:28:13;;;;;;;26.77;24.07;;;;;;;16.75;100.00;99241.41;2072056;28;20222;-74
2021/08/21 00:29:14;;;;;;;25.70;23.23;;;;;;;16.77;100.00;99238.38;2071571;28;20451;-74
2021/08/21 00:30:15;;;;;;;25.80;22.93;;;;;;;16.77;100.00;99243.78;2080265;28;20231;-74
2021/08/21 00:31:20;;;;;;;25.03;22.73;;;;;;;16.76;100.00;99245.66;2080931;28;20516;-74
2021/08/21 00:32:21;;;;;;;25.30;22.90;;;;;;;16.76;100.00;99242.97;2080883;28;21007;-74
2021/08/21 00:33:22;;;;;;;25.30;22.93;;;;;;;16.76;100.00;99242.97;2080684;28;20890;-74
2021/08/21 00:34:23;;;;;;;24.07;21.87;;;;;;;16.77;100.00;99241.09;2080058;28;20242;-74
2021/08/21 00:35:25;;;;;;;24.20;21.93;;;;;;;16.75;100.00;99244.09;2071500;28;20473;-74
2021/08/21 00:36:25;;;;;;;24.90;22.50;;;;;;;16.75;100.00;99246.00;2071956;28;20620;-74
2021/08/21 00:37:28;;;;;;;26.83;24.13;;;;;;;16.75;100.00;99249.47;2071987;28;20447;-74
2021/08/21 00:38:30;;;;;;;26.37;23.63;;;;;;;16.75;100.00;99244.09;2071601;28;20448;-74
2021/08/21 00:39:32;;;;;;;25.67;23.10;;;;;;;16.76;100.00;99245.66;2071980;28;20467;-74
2021/08/21 00:40:32;;;;;;;26.40;23.57;;;;;;;16.81;100.00;99256.25;2071955;28;20870;-74
2021/08/21 00:41:34;;;;;;;25.63;23.00;;;;;;;16.82;100.00;99260.50;2080294;28;20450;-74
2021/08/21 00:42:35;;;;;;;26.97;24.00;;;;;;;16.83;100.00;99254.00;2080843;28;20310;-74
2021/08/21 00:43:37;;;;;;;25.27;22.57;;;;;;;16.90;100.00;99253.47;2081056;28;20454;-74
2021/08/21 00:44:39;;;;;;;25.53;23.23;;;;;;;16.92;100.00;99252.00;2080490;28;20503;-74
2021/08/21 00:45:40;;;;;;;25.60;23.03;;;;;;;16.92;100.00;99249.31;2080051;28;20965;-74
2021/08/21 00:47:06;;;;;;;25.87;23.13;;;;;;;16.91;100.00;99249.66;2080230;28;20458;-74
2021/08/21 00:48:07;;;;;;;29.30;24.23;;;;;;;16.88;100.00;99250.31;2080048;28;20466;-74
2021/08/21 00:49:08;;;;;;;26.17;23.43;;;;;;;16.84;100.00;99254.78;2080788;28;20455;-74
2021/08/21 00:50:10;;;;;;;26.73;23.90;;;;;;;16.83;100.00;99248.59;2079984;28;20454;-74
2021/08/21 00:51:10;;;;;;;26.97;23.40;;;;;;;16.80;100.00;99249.28;2080082;28;20223;-74
2021/08/21 00:52:14;;;;;;;26.67;23.73;;;;;;;16.79;100.00;99242.31;2079786;28;20456;-74
2021/08/21 00:53:15;;;;;;;25.70;22.93;;;;;;;16.79;100.00;99247.72;2071986;28;20227;-74
2021/08/21 00:54:17;;;;;;;24.30;22.10;;;;;;;16.79;100.00;99246.94;2071445;28;20459;-74
2021/08/21 00:55:19;;;;;;;25.67;23.23;;;;;;;16.78;100.00;99246.13;2071969;28;20436;-74
2021/08/21 00:56:20;;;;;;;26.07;22.97;;;;;;;16.77;100.00;99249.16;2080089;28;20454;-74
2021/08/21 00:57:23;;;;;;;25.50;22.77;;;;;;;16.76;100.00;99242.19;2080066;28;20447;-74
2021/08/21 00:58:23;;;;;;;24.07;21.87;;;;;;;16.77;100.00;99244.56;2079606;28;20294;-74
2021/08/21 00:59:26;;;;;;;25.43;22.77;;;;;;;16.76;100.00;99237.56;2071761;28;20546;-74
2021/08/21 01:00:27;;;;;;;25.27;22.57;;;;;;;16.76;100.00;99232.19;2080123;28;20513;-74
2021/08/21 01:01:29;;;;;;;25.07;22.60;;;;;;;16.77;100.00;99239.19;2079824;28;20462;-74
2021/08/21 01:02:31;;;;;;;23.97;21.97;;;;;;;16.76;100.00;99237.56;2080021;28;20299;-74
2021/08/21 01:03:33;;;;;;;25.07;22.33;;;;;;;16.77;100.00;99249.16;2079887;28;20496;-74
2021/08/21 01:04:35;;;;;;;25.30;22.63;;;;;;;16.78;100.00;99234.56;2079955;28;20559;-75
2021/08/21 01:05:37;;;;;;;28.20;23.60;;;;;;;16.77;100.00;99239.19;2072039;28;20439;-74
2021/08/21 01:06:38;;;;;;;25.40;22.80;;;;;;;16.76;100.00;99242.97;2079611;28;20908;-74
2021/08/21 01:07:39;;;;;;;24.93;22.53;;;;;;;16.75;100.00;99238.69;2079825;28;20458;-74
2021/08/21 01:08:42;;;;;;;25.30;22.13;;;;;;;16.72;100.00;99236.69;2079445;28;20310;-74
2021/08/21 01:09:46;;;;;;;24.87;22.43;;;;;;;16.72;100.00;99233.19;2079864;28;20454;-74
2021/08/21 01:10:49;;;;;;;23.90;21.53;;;;;;;16.72;100.00;99241.28;2071862;28;20463;-74
2021/08/21 01:11:49;;;;;;;26.53;23.77;;;;;;;16.73;100.00;99245.56;2071829;28;20463;-74
2021/08/21 01:12:55;;;;;;;25.60;23.10;;;;;;;16.70;100.00;99233.53;2071781;28;20483;-74
2021/08/21 01:13:55;;;;;;;28.30;23.07;;;;;;;16.70;100.00;99249.69;2071855;28;20690;-74
2021/08/21 01:14:57;;;;;;;25.70;23.03;;;;;;;16.71;100.00;99243.19;2071772;28;22394;-74
2021/08/21 01:15:59;;;;;;;29.53;22.90;;;;;;;16.69;100.00;99247.34;2079874;28;20670;-74
2021/08/21 01:17:00;;;;;;;25.33;22.80;;;;;;;16.70;100.00;99238.94;2080695;28;20499;-74
2021/08/21 01:18:04;;;;;;;25.10;22.47;;;;;;;16.71;100.00;99245.88;2079784;28;20458;-74
2021/08/21 01:19:05;;;;;;;25.03;22.63;;;;;;;16.70;100.00;99243.53;2071860;28;20254;-74
2021/08/21 01:20:07;;;;;;;25.50;23.10;;;;;;;16.70;100.00;99238.94;2079934;28;20803;-74
2021/08/21 01:21:10;;;;;;;26.37;23.67;;;;;;;16.71;100.00;99243.19;2079475;28;20446;-74
2021/08/21 01:22:14;;;;;;;27.00;24.40;;;;;;;16.72;100.00;99246.66;2071665;28;20460;-74
2021/08/21 01:23:16;;;;;;;26.70;24.10;;;;;;;16.71;100.00;99240.50;2072071;28;20319;-74
2021/08/21 01:24:27;;;;;;;25.87;23.37;;;;;;;16.70;100.00;99243.53;2072711;28;20578;-74
2021/08/21 01:25:30;;;;;;;28.60;23.43;;;;;;;16.68;100.00;99230.38;2071746;28;20450;-74
2021/08/21 01:26:32;;;;;;;25.47;23.07;;;;;;;16.70;100.00;99228.16;2071957;28;20565;-74
2021/08/21 01:27:44;;;;;;;26.73;23.37;;;;;;;16.69;100.00;99233.88;2079324;28;20457;-74
2021/08/21 01:28:51;;;;;;;26.50;22.13;;;;;;;16.69;100.00;99226.56;2072507;28;21071;-74
2021/08/21 01:30:05;;;;;;;25.60;22.90;;;;;;;16.71;100.00;99234.31;2079477;28;20519;-75
2021/08/21 01:31:19;;;;;;;25.90;23.30;;;;;;;16.71;100.00;99239.72;2079236;28;20458;-74
2021/08/21 01:32:20;;;;;;;24.93;22.40;;;;;;;16.70;100.00;99235.44;2071217;28;20500;-74
2021/08/21 01:33:22;;;;;;;25.90;23.00;;;;;;;16.66;100.00;99232.56;2071718;28;20475;-74
2021/08/21 01:34:23;;;;;;;27.20;23.10;;;;;;;16.67;100.00;99236.84;2071362;28;20977;-74
2021/08/21 01:35:25;;;;;;;25.67;22.60;;;;;;;16.67;100.00;99234.16;2079613;28;20462;-74
2021/08/21 01:36:26;;;;;;;25.83;23.13;;;;;;;16.67;100.00;99234.94;2071490;28;20895;-74
2021/08/21 01:37:59;;;;;;;23.60;21.53;;;;;;;16.66;100.00;99237.97;2079461;28;20450;-74
2021/08/21 01:39:20;;;;;;;26.03;23.47;;;;;;;16.63;100.00;99230.56;2080303;28;20453;-74
2021/08/21 01:40:27;;;;;;;24.50;22.10;;;;;;;16.63;100.00;99225.16;2079314;28;20454;-74
2021/08/21 01:41:28;;;;;;;26.20;23.60;;;;;;;16.63;100.00;99244.03;2079775;28;20521;-74
2021/08/21 01:42:32;;;;;;;24.93;22.47;;;;;;;16.63;100.00;99238.63;2071860;28;20542;-74
2021/08/21 01:43:35;;;;;;;24.90;22.30;;;;;;;16.59;100.00;99238.53;2079766;28;20462;-74
2021/08/21 01:44:36;;;;;;;25.33;22.63;;;;;;;16.57;100.00;99238.06;2079716;28;21030;-73
2021/08/21 01:45:38;;;;;;;25.93;23.20;;;;;;;16.56;100.00;99238.38;2071245;28;20459;-74
2021/08/21 01:46:40;;;;;;;24.70;22.40;;;;;;;16.54;100.00;99236.03;2071566;28;20501;-74
2021/08/21 01:47:43;;;;;;;25.93;23.23;;;;;;;16.51;100.00;99239.38;2079720;28;20450;-74
2021/08/21 01:48:44;;;;;;;27.97;23.07;;;;;;;16.55;100.00;99239.50;2079647;28;20446;-74
2021/08/21 01:49:53;;;;;;;25.30;22.57;;;;;;;16.52;100.00;99234.78;2079654;28;21054;-74
2021/08/21 01:50:54;;;;;;;24.47;22.07;;;;;;;16.49;100.00;99238.13;2072141;28;20224;-74
2021/08/21 01:52:00;;;;;;;26.10;23.30;;;;;;;16.52;100.00;99234.78;2071464;28;20471;-74
2021/08/21 01:53:01;;;;;;;24.60;22.30;;;;;;;16.48;100.00;99231.16;2072071;28;20470;-74
2021/08/21 01:54:07;;;;;;;25.73;22.80;;;;;;;16.46;100.00;99236.09;2071891;28;20526;-74
2021/08/21 01:55:12;;;;;;;25.10;22.43;;;;;;;16.42;100.00;99233.28;2071776;28;20490;-74
2021/08/21 01:56:13;;;;;;;27.57;23.63;;;;;;;16.41;100.00;99229.00;2071642;28;20786;-74
2021/08/21 01:57:29;;;;;;;27.57;22.87;;;;;;;16.38;100.00;99233.16;2073060;28;20493;-74
2021/08/21 01:58:44;;;;;;;26.37;23.53;;;;;;;16.37;100.00;99228.88;2072409;28;20964;-74
2021/08/21 02:00:11;;;;;;;25.63;23.00;;;;;;;16.35;100.00;99236.50;2074227;28;20516;-74
2021/08/21 02:01:14;;;;;;;25.73;22.40;;;;;;;16.34;100.00;99237.63;2079683;28;20455;-74
2021/08/21 02:02:36;;;;;;;25.87;22.40;;;;;;;16.29;100.00;99231.66;2079974;28;20454;-74
2021/08/21 02:03:56;;;;;;;25.03;22.53;;;;;;;16.27;100.00;99236.59;2079135;28;20457;-74
2021/08/21 02:04:57;;;;;;;25.88;22.73;;;;;;;16.23;100.00;99236.44;2079731;28;20960;-74
2021/08/21 02:05:59;;;;;;;25.07;22.50;;;;;;;16.21;100.00;99230.59;2079569;28;20652;-74
2021/08/21 02:06:59;;;;;;;25.53;22.90;;;;;;;16.19;100.00;99234.75;2071519;28;20224;-74
2021/08/21 02:08:01;;;;;;;25.80;23.03;;;;;;;16.17;100.00;99236.97;2079636;28;20604;-74
2021/08/21 02:09:03;;;;;;;25.23;22.70;;;;;;;16.13;100.00;99234.16;2079555;28;20469;-73
2021/08/21 02:10:05;;;;;;;24.57;22.27;;;;;;;16.12;100.00;99237.94;2079673;28;20999;-74
2021/08/21 02:11:06;;;;;;;25.77;22.37;;;;;;;16.10;100.00;99237.50;2079444;28;20621;-74
2021/08/21 02:12:09;;;;;;;24.67;22.47;;;;;;;16.08;100.00;99239.75;2079179;28;20585;-74
2021/08/21 02:13:14;;;;;;;25.57;23.23;;;;;;;16.07;100.00;99248.91;2072195;28;20594;-74
2021/08/21 02:14:18;;;;;;;25.70;23.07;;;;;;;16.03;100.00;99242.59;2079697;28;20529;-73
2021/08/21 02:15:18;;;;;;;25.13;22.83;;;;;;;16.02;100.00;99243.72;2079640;28;20302;-74
2021/08/21 02:16:25;;;;;;;25.30;22.57;;;;;;;15.99;100.00;99239.00;2071768;28;20513;-74
2021/08/21 02:17:26;;;;;;;25.48;22.73;;;;;;;15.97;100.00;99239.31;2071288;28;20551;-73
2021/08/21 02:18:49;;;;;;;27.50;22.43;;;;;;;15.97;100.00;99239.31;2073674;28;20255;-74
2021/08/21 02:20:19;;;;;;;25.53;22.90;;;;;;;15.95;100.00;99251.53;2079100;28;20478;-74
2021/08/21 02:21:21;;;;;;;25.37;22.83;;;;;;;15.92;100.00;99252.19;2079611;28;20458;-74
2021/08/21 02:22:23;;;;;;;25.87;23.17;;;;;;;15.93;100.00;99249.16;2071144;28;20473;-74
2021/08/21 02:23:24;;;;;;;25.37;22.87;;;;;;;15.93;100.00;99253.75;2071327;28;20542;-75
2021/08/21 02:24:26;;;;;;;25.67;22.97;;;;;;;15.91;100.00;99245.25;2079502;28;20546;-74
2021/08/21 02:25:29;;;;;;;24.73;22.20;;;;;;;15.89;100.00;99252.81;2071402;28;20463;-74
2021/08/21 02:26:31;;;;;;;25.50;23.00;;;;;;;15.87;100.00;99255.06;2071602;28;20224;-74
2021/08/21 02:27:42;;;;;;;26.53;23.10;;;;;;;15.82;100.00;99242.59;2071959;28;20522;-74
2021/08/21 02:28:44;;;;;;;26.93;24.03;;;;;;;15.83;100.00;99254.94;2071736;28;20505;-74
2021/08/21 02:29:47;;;;;;;28.17;22.70;;;;;;;15.79;100.00;99257.47;2071428;28;20440;-74
2021/08/21 02:30:48;;;;;;;26.02;23.30;;;;;;;15.74;100.00;99257.69;2079701;28;20446;-74
2021/08/21 02:31:49;;;;;;;25.67;23.00;;;;;;;15.70;100.00;99258.63;2079341;28;20215;-74
2021/08/21 02:32:51;;;;;;;26.23;23.43;;;;;;;15.67;100.00;99257.38;2079540;28;20234;-75
2021/08/21 02:33:53;;;;;;;25.45;22.92;;;;;;;15.64;100.00;99257.25;2079191;28;20306;-74
2021/08/21 02:34:54;;;;;;;26.83;23.70;;;;;;;15.65;100.00;99266.91;2071273;28;20678;-74
2021/08/21 02:35:55;;;;;;;29.07;23.10;;;;;;;15.67;100.00;99256.59;2071274;28;20232;-74
2021/08/21 02:36:56;;;;;;;25.63;22.97;;;;;;;15.66;100.00;99255.81;2071437;28;20710;-74
2021/08/21 02:37:58;;;;;;;25.40;22.83;;;;;;;15.64;100.00;99252.66;2079581;28;20517;-74
2021/08/21 02:38:59;;;;;;;26.23;23.63;;;;;;;15.62;100.00;99254.88;2079336;28;20273;-74
2021/08/21 02:40:02;;;;;;;25.53;22.77;;;;;;;15.59;100.00;99257.41;2079466;28;20500;-74
2021/08/21 02:41:02;;;;;;;28.70;24.15;;;;;;;15.53;100.00;99257.56;2079567;28;20952;-74
2021/08/21 02:42:04;;;;;;;26.10;23.40;;;;;;;15.49;100.00;99255.88;2080983;28;20582;-74
2021/08/21 02:43:05;;;;;;;25.65;22.98;;;;;;;15.48;100.00;99260.47;2081750;28;20307;-74
2021/08/21 02:44:06;;;;;;;26.00;23.40;;;;;;;15.46;100.00;99262.69;2081771;28;20276;-74
2021/08/21 02:45:11;;;;;;;25.88;23.27;;;;;;;15.44;100.00;99258.72;2081401;28;20227;-74
2021/08/21 02:46:11;;;;;;;24.10;21.98;;;;;;;15.42;100.00;99260.97;2081763;28;20234;-74
2021/08/21 02:47:13;;;;;;;25.50;23.17;;;;;;;15.38;100.00;99260.81;2080904;28;20310;-74
2021/08/21 02:48:14;;;;;;;25.90;23.05;;;;;;;15.35;100.00;99271.41;2080892;28;20226;-74
2021/08/21 02:49:17;;;;;;;25.20;22.67;;;;;;;15.29;100.00;99268.13;2080947;28;20243;-74
2021/08/21 02:50:17;;;;;;;25.43;22.87;;;;;;;15.23;100.00;99259.44;2081012;28;20260;-74
2021/08/21 02:51:20;;;;;;;25.67;22.90;;;;;;;15.21;100.00;99260.88;2081085;28;20968;-74
2021/08/21 02:52:20;;;;;;;25.90;23.40;;;;;;;15.15;100.00;99252.19;2081800;28;20229;-74
2021/08/21 02:53:22;;;;;;;25.97;23.57;;;;;;;15.13;100.00;99259.00;2080861;28;20262;-74
2021/08/21 02:54:23;;;;;;;26.17;22.57;;;;;;;15.08;100.00;99254.59;2072319;28;20228;-74
2021/08/21 02:55:26;;;;;;;24.98;22.55;;;;;;;15.04;100.00;99255.56;2072849;28;20534;-74
2021/08/21 02:56:27;;;;;;;27.83;22.70;;;;;;;14.99;100.00;99259.19;2072858;28;20709;-73
2021/08/21 02:57:28;;;;;;;24.37;22.00;;;;;;;14.97;100.00;99256.03;2072781;28;20602;-74
2021/08/21 02:58:30;;;;;;;25.05;22.65;;;;;;;14.93;100.00;99257.78;2072944;28;20289;-73
2021/08/21 02:59:33;;;;;;;26.02;23.40;;;;;;;14.90;100.00;99258.44;2080919;28;20604;-74
2021/08/21 03:00:37;;;;;;;29.77;22.20;;;;;;;14.85;100.00;99256.69;2073103;28;20220;-74
2021/08/21 03:01:42;;;;;;;25.55;22.85;;;;;;;14.81;100.00;99263.03;2072790;28;20462;-74
2021/08/21 03:02:42;;;;;;;26.35;23.70;;;;;;;14.79;100.00;99257.97;2080935;28;20573;-74
2021/08/21 03:03:47;;;;;;;25.60;23.20;;;;;;;14.77;100.00;99251.31;2080839;28;20277;-74
2021/08/21 03:04:52;;;;;;;29.10;22.83;;;;;;;14.75;100.00;99253.53;2073076;28;20710;-74
2021/08/21 03:05:58;;;;;;;25.35;22.75;;;;;;;14.69;100.00;99261.78;2073080;28;20236;-74
2021/08/21 03:07:00;;;;;;;24.47;21.93;;;;;;;14.65;100.00;99260.81;2073012;28;20323;-74
2021/08/21 03:08:25;;;;;;;24.27;21.90;;;;;;;14.63;100.00;99267.63;2069724;28;20545;-74
2021/08/21 03:09:27;;;;;;;26.33;23.67;;;;;;;14.60;100.00;99268.28;2080770;28;20234;-74
2021/08/21 03:10:28;;;;;;;26.03;23.40;;;;;;;14.56;100.00;99262.72;2072601;28;20234;-74
2021/08/21 03:11:35;;;;;;;26.23;23.70;;;;;;;14.54;100.00;99258.78;2080923;28;20605;-74
2021/08/21 03:12:58;;;;;;;25.02;22.40;;;;;;;14.49;100.00;99257.03;2080269;28;20277;-74
2021/08/21 03:14:00;;;;;;;25.40;22.75;;;;;;;14.48;100.00;99255.47;2080705;28;20268;-74
2021/08/21 03:15:02;;;;;;;26.02;23.40;;;;;;;14.43;100.00;99258.31;2080761;28;20733;-74
2021/08/21 03:16:06;;;;;;;26.25;23.55;;;;;;;14.42;100.00;99262.06;2072685;28;20220;-74
2021/08/21 03:17:11;;;;;;;27.35;23.45;;;;;;;14.39;100.00;99265.38;2072270;28;20681;-74
2021/08/21 03:18:13;;;;;;;25.67;22.95;;;;;;;14.37;100.00;99271.09;2072282;28;20251;-74
2021/08/21 03:19:16;;;;;;;28.73;24.52;;;;;;;14.38;100.00;99271.88;2072799;28;20231;-74
2021/08/21 03:20:18;;;;;;;26.88;24.10;;;;;;;14.36;100.00;99269.50;2072591;28;20292;-73
2021/08/21 03:21:19;;;;;;;31.10;24.98;;;;;;;14.38;100.00;99271.88;2080946;28;20231;-73
2021/08/21 03:22:21;;;;;;;34.67;25.67;;;;;;;14.35;100.00;99265.25;2080677;28;20215;-74
2021/08/21 03:23:22;;;;;;;36.13;26.48;;;;;;;14.38;100.00;99271.88;2080297;28;20303;-74
2021/08/21 03:24:25;;;;;;;35.28;25.23;;;;;;;14.37;100.00;99271.09;2080618;28;20789;-74
2021/08/21 03:25:26;;;;;;;30.48;25.13;;;;;;;14.37;100.00;99270.28;2072708;28;20231;-74
2021/08/21 03:26:28;;;;;;;31.33;25.95;;;;;;;14.34;100.00;99271.72;2080838;28;20279;-74
2021/08/21 03:27:29;;;;;;;32.15;25.48;;;;;;;14.36;100.00;99268.72;2080635;28;20219;-74
2021/08/21 03:28:32;;;;;;;33.58;25.60;;;;;;;14.36;100.00;99272.19;2072542;28;20232;-74
2021/08/21 03:29:35;;;;;;;29.13;25.50;;;;;;;14.36;100.00;99266.03;2072918;28;20228;-74
2021/08/21 03:30:37;;;;;;;30.42;26.17;;;;;;;14.34;100.00;99268.25;2080645;28;20230;-74
2021/08/21 03:31:50;;;;;;;30.83;25.85;;;;;;;14.35;100.00;99272.50;2073723;28;20278;-74
2021/08/21 03:32:51;;;;;;;27.88;24.75;;;;;;;14.35;100.00;99269.81;2080786;28;20693;-74
2021/08/21 03:33:54;;;;;;;32.13;25.23;;;;;;;14.31;100.00;99266.97;2080206;28;20337;-74
2021/08/21 03:34:56;;;;;;;31.35;26.15;;;;;;;14.34;100.00;99279.00;2072715;28;20235;-74
2021/08/21 03:35:59;;;;;;;34.15;26.48;;;;;;;14.34;100.00;99279.78;2072621;28;20594;-74
2021/08/21 03:37:01;;;;;;;30.70;26.70;;;;;;;14.35;100.00;99281.34;2072597;28;20248;-74
2021/08/21 03:38:03;;;;;;;30.63;26.27;;;;;;;14.36;100.00;99279.44;2072494;28;20678;-74
2021/08/21 03:39:12;;;;;;;34.08;26.67;;;;;;;14.35;100.00;99281.34;2072975;28;20274;-74
2021/08/21 03:40:12;;;;;;;33.53;24.60;;;;;;;14.35;100.00;99285.94;2080623;28;20220;-74
2021/08/21 03:41:16;;;;;;;26.52;23.73;;;;;;;14.34;100.00;99287.03;2080558;28;20258;-75
2021/08/21 03:42:44;;;;;;;26.67;23.83;;;;;;;14.30;100.00;99283.38;2075290;28;20243;-74
2021/08/21 03:43:45;;;;;;;27.65;24.17;;;;;;;14.28;100.00;99282.91;2081357;28;20247;-74
2021/08/21 03:44:47;;;;;;;30.43;24.83;;;;;;;14.25;100.00;99287.03;2081292;28;20223;-73
2021/08/21 03:45:47;;;;;;;28.77;25.67;;;;;;;14.23;100.00;99288.44;2081390;28;20223;-74
2021/08/21 03:46:53;;;;;;;31.30;26.20;;;;;;;14.22;100.00;99286.84;2080514;28;20229;-74
2021/08/21 03:47:55;;;;;;;30.98;25.08;;;;;;;14.20;100.00;99287.16;2072431;28;20701;-74
2021/08/21 03:48:59;;;;;;;31.52;25.80;;;;;;;14.18;100.00;99284.03;2072375;28;20223;-74
2021/08/21 03:50:02;;;;;;;30.40;25.92;;;;;;;14.18;100.00;99294.75;2072639;28;20780;-74
2021/08/21 03:51:08;;;;;;;36.90;24.65;;;;;;;14.16;100.00;99291.59;2072454;28;20322;-74
2021/08/21 03:52:15;;;;;;;33.53;25.52;;;;;;;14.15;100.00;99298.81;2073091;28;20311;-75
2021/08/21 03:53:19;;;;;;;33.25;26.67;;;;;;;14.15;100.00;99287.31;2080451;28;20219;-74
2021/08/21 03:54:29;;;;;;;34.97;27.52;;;;;;;14.21;100.00;99296.00;2073323;28;20733;-74
2021/08/21 03:55:31;;;;;;;32.97;27.10;;;;;;;14.25;100.00;99295.09;2072407;28;20601;-74
2021/08/21 03:56:33;;;;;;;33.20;26.40;;;;;;;14.29;100.00;99297.91;2072421;28;20554;-74
2021/08/21 03:57:39;;;;;;;34.13;26.73;;;;;;;14.29;100.00;99300.59;2072381;28;20682;-74
2021/08/21 03:58:39;;;;;;;30.73;25.90;;;;;;;14.32;100.00;99305.31;2072223;28;20223;-74
2021/08/21 03:59:42;;;;;;;30.33;24.45;;;;;;;14.31;100.00;99298.38;2072405;28;20627;-74
2021/08/21 04:00:46;;;;;;;32.50;26.52;;;;;;;14.31;100.00;99309.13;2080435;28;20673;-74
2021/08/21 04:01:53;;;;;;;26.63;23.80;;;;;;;14.28;100.00;99304.41;2072502;28;20315;-74
2021/08/21 04:03:00;;;;;;;29.20;24.45;;;;;;;14.27;100.00;99308.19;2072508;28;20247;-74
2021/08/21 04:04:04;;;;;;;32.35;26.20;;;;;;;14.27;100.00;99308.97;2080464;28;20226;-74
2021/08/21 04:05:10;;;;;;;42.00;25.65;;;;;;;14.25;100.00;99305.81;2072374;28;20299;-74
2021/08/21 04:06:11;;;;;;;30.05;25.45;;;;;;;14.26;100.00;99309.28;2072189;28;20725;-74
2021/08/21 04:07:16;;;;;;;36.17;26.58;;;;;;;14.25;100.00;99311.19;2072684;28;20227;-73
2021/08/21 04:08:17;;;;;;;29.33;25.10;;;;;;;14.26;100.00;99311.97;2072304;28;20250;-74
2021/08/21 04:09:21;;;;;;;28.85;24.75;;;;;;;14.27;100.00;99318.91;2072524;28;20254;-74
2021/08/21 04:10:26;;;;;;;32.17;24.77;;;;;;;14.23;100.00;99316.06;2072484;28;20228;-74
2021/08/21 04:11:31;;;;;;;27.13;24.23;;;;;;;14.23;100.00;99317.94;2072873;28;20224;-74
2021/08/21 04:12:41;;;;;;;31.38;26.20;;;;;;;14.23;100.00;99315.25;2079871;28;20281;-74
2021/08/21 04:13:50;;;;;;;35.40;27.65;;;;;;;14.26;100.00;99315.44;2073023;28;20216;-74
2021/08/21 04:14:51;;;;;;;36.08;27.42;;;;;;;14.30;100.00;99324.44;2072179;28;20232;-73
2021/08/21 04:15:53;;;;;;;32.10;25.87;;;;;;;14.33;100.00;99326.50;2080246;28;20721;-74
2021/08/21 04:16:55;;;;;;;33.53;26.75;;;;;;;14.37;100.00;99319.41;2080278;28;20231;-74
2021/08/21 04:17:58;;;;;;;39.00;27.80;;;;;;;14.41;100.00;99325.69;2080158;28;20251;-74
2021/08/21 04:18:59;;;;;;;33.63;27.08;;;;;;;14.46;100.00;99318.66;2072064;28;20232;-74
2021/08/21 04:20:05;;;;;;;35.72;27.58;;;;;;;14.52;100.00;99326.25;2080171;28;20223;-74
2021/08/21 04:21:08;;;;;;;33.03;26.90;;;;;;;14.61;100.00;99329.72;2079926;28;20670;-74
2021/08/21 04:22:10;;;;;;;32.27;27.50;;;;;;;14.65;100.00;99327.19;2072040;28;20227;-74
2021/08/21 04:23:22;;;;;;;32.35;26.55;;;;;;;14.72;100.00;99334.78;2079890;28;20219;-74
2021/08/21 04:24:26;;;;;;;29.83;25.95;;;;;;;14.76;100.00;99336.50;2072356;28;20224;-73
2021/08/21 04:25:33;;;;;;;30.77;26.95;;;;;;;14.80;100.00;99340.13;2072914;28;20709;-74
2021/08/21 04:26:39;;;;;;;31.02;25.75;;;;;;;14.85;100.00;99339.97;2072435;28;20742;-74
2021/08/21 04:27:40;;;;;;;32.30;26.27;;;;;;;14.89;100.00;99340.13;2071613;28;20583;-74
2021/08/21 04:28:41;;;;;;;35.70;27.15;;;;;;;14.92;100.00;99344.88;2071375;28;20243;-74
2021/08/21 04:29:43;;;;;;;37.45;27.08;;;;;;;14.97;100.00;99347.41;2071987;28;20283;-74
2021/08/21 04:30:48;;;;;;;33.83;27.20;;;;;;;15.00;100.00;99346.75;2072600;28;20787;-74
2021/08/21 04:31:49;;;;;;;31.92;25.58;;;;;;;15.04;100.00;99347.72;2080216;28;20631;-74
2021/08/21 04:32:54;;;;;;;32.58;24.92;;;;;;;15.08;100.00;99345.16;2071852;28;20223;-74
2021/08/21 04:33:57;;;;;;;29.20;24.27;;;;;;;15.09;100.00;99347.53;2072485;28;20259;-74
2021/08/21 04:35:01;;;;;;;28.17;24.58;;;;;;;15.13;100.00;99355.75;2072196;28;20224;-74
2021/08/21 04:36:04;;;;;;;33.70;24.30;;;;;;;15.13;100.00;99348.50;2080178;28;20732;-74
2021/08/21 04:37:09;;;;;;;30.20;24.50;;;;;;;15.18;100.00;99344.84;2072154;28;20230;-74
2021/08/21 04:38:13;;;;;;;33.67;25.55;;;;;;;15.20;100.00;99351.50;2080110;28;20219;-74
2021/08/21 04:39:26;;;;;;;30.10;25.90;;;;;;;15.25;100.00;99356.69;2073202;28;20274;-74
2021/08/21 04:40:28;;;;;;;31.05;24.90;;;;;;;15.26;100.00;99341.34;2072175;28;20303;-74
2021/08/21 04:41:34;;;;;;;30.77;24.60;;;;;;;15.30;100.00;99357.63;2080067;28;20233;-74
2021/08/21 04:42:35;;;;;;;28.27;24.63;;;;;;;15.32;100.00;99344.66;2072001;28;20347;-74
2021/08/21 04:43:37;;;;;;;33.10;26.43;;;;;;;15.36;100.00;99349.06;2071977;28;20227;-74
2021/08/21 04:44:40;;;;;;;35.08;27.95;;;;;;;15.40;100.00;99349.22;2071818;28;20224;-74
2021/08/21 04:45:45;;;;;;;34.50;27.23;;;;;;;15.42;100.00;99349.69;2072281;28;20220;-74
2021/08/21 04:46:46;;;;;;;34.45;26.67;;;;;;;15.43;100.00;99352.06;2072004;28;20302;-74
2021/08/21 04:47:49;;;;;;;35.85;27.10;;;;;;;15.48;100.00;99359.16;2072021;28;20228;-74
2021/08/21 04:48:51;;;;;;;37.67;27.25;;;;;;;15.49;100.00;99348.09;2071946;28;20757;-74
2021/08/21 04:49:53;;;;;;;31.07;25.97;;;;;;;15.52;100.00;99352.03;2079552;28;20239;-74